Time;durP1;ratioP1;P1;durP2;ratioP2;P2;SDS_P1;SDS_P2;PMS_P1;PMS_P2;Temp;Humidity;BMP_temperature;BMP_pressure;BME280_temperature;BME280_humidity;BME280_pressure;Samples;Min_cycle;Max_cycle;Signal;HPM_P1;HPM_P2
2022/07/24 00:02:32;;;;;;;4.72;0.80;;;;;;;16.98;100.00;98785.50;15275687;19;20021;-58
2022/07/24 00:07:38;;;;;;;1.35;0.60;;;;;;;16.91;100.00;98778.06;15277477;19;20010;-59
2022/07/24 00:12:44;;;;;;;1.85;0.60;;;;;;;16.85;100.00;98778.88;15280416;19;20034;-60
2022/07/24 00:17:51;;;;;;;2.13;0.70;;;;;;;16.75;100.00;98781.06;15283184;19;20027;-59
2022/07/24 00:22:56;;;;;;;1.52;0.60;;;;;;;16.64;100.00;98787.84;15280628;19;20019;-59
2022/07/24 00:28:02;;;;;;;1.35;0.65;;;;;;;16.56;100.00;98794.22;15277312;19;20018;-59
2022/07/24 00:33:15;;;;;;;2.45;0.80;;;;;;;16.49;100.00;98785.97;15282682;19;20023;-59
2022/07/24 00:38:20;;;;;;;2.50;0.90;;;;;;;16.43;100.00;98785.91;15279444;19;20014;-59
2022/07/24 00:43:25;;;;;;;1.15;0.70;;;;;;;16.37;100.00;98794.84;15282113;19;20025;-59
2022/07/24 00:48:32;;;;;;;3.03;0.73;;;;;;;16.30;100.00;98798.28;15280910;19;20031;-59
2022/07/24 00:53:39;;;;;;;3.47;0.75;;;;;;;16.25;100.00;98792.59;15281165;19;20479;-59
2022/07/24 00:58:44;;;;;;;2.03;0.60;;;;;;;16.17;100.00;98792.69;15276670;19;20021;-59
2022/07/24 01:03:52;;;;;;;2.80;0.63;;;;;;;16.14;100.00;98806.66;15279838;19;20018;-60
2022/07/24 01:08:57;;;;;;;3.13;0.70;;;;;;;16.08;100.00;98807.41;15274733;19;20026;-58
2022/07/24 01:14:03;;;;;;;1.83;0.80;;;;;;;16.04;100.00;98801.50;15278629;19;20015;-59
2022/07/24 01:19:10;;;;;;;1.00;0.70;;;;;;;16.00;100.00;98805.63;15279692;19;20014;-59
2022/07/24 01:24:18;;;;;;;1.27;0.70;;;;;;;15.95;100.00;98813.50;15284637;19;20480;-59
2022/07/24 01:29:23;;;;;;;2.58;0.65;;;;;;;15.85;100.00;98811.03;15280706;19;20014;-58
2022/07/24 01:34:28;;;;;;;1.50;0.70;;;;;;;15.79;100.00;98807.16;15278934;19;20022;-59
2022/07/24 01:39:35;;;;;;;2.83;0.80;;;;;;;15.72;100.00;98803.50;15281626;19;20022;-59
2022/07/24 01:44:40;;;;;;;1.95;0.70;;;;;;;15.65;100.00;98802.56;15281507;19;20014;-59
2022/07/24 01:49:45;;;;;;;1.00;0.60;;;;;;;15.60;100.00;98813.13;15281246;19;20014;-59
2022/07/24 01:54:53;;;;;;;1.05;0.60;;;;;;;15.53;100.00;98813.84;15282658;19;20018;-59
2022/07/24 01:59:57;;;;;;;2.47;0.63;;;;;;;15.37;100.00;98808.59;15282220;19;20034;-59
2022/07/24 02:05:02;;;;;;;2.22;0.80;;;;;;;15.30;100.00;98813.91;15280011;19;20026;-59
2022/07/24 02:10:11;;;;;;;1.33;0.60;;;;;;;15.28;100.00;98809.69;15280657;19;20018;-60
2022/07/24 02:15:16;;;;;;;1.20;0.65;;;;;;;15.21;100.00;98807.69;15278242;19;20015;-59
2022/07/24 02:20:21;;;;;;;1.77;0.90;;;;;;;15.15;100.00;98802.16;15280759;19;20019;-60
2022/07/24 02:25:29;;;;;;;3.08;0.85;;;;;;;15.09;100.00;98804.56;15282802;19;20487;-59
2022/07/24 02:30:34;;;;;;;1.70;0.70;;;;;;;15.04;100.00;98796.13;15277441;19;20014;-60
2022/07/24 02:35:40;;;;;;;2.33;0.75;;;;;;;14.96;100.00;98798.91;15275860;19;20014;-59
2022/07/24 02:40:48;;;;;;;1.77;0.80;;;;;;;14.90;100.00;98799.59;15275361;19;20027;-60
2022/07/24 02:45:53;;;;;;;1.75;0.85;;;;;;;14.88;100.00;98796.22;15277357;19;20031;-60
2022/07/24 02:50:58;;;;;;;1.30;0.88;;;;;;;14.83;100.00;98804.06;15276279;19;20559;-60
2022/07/24 02:56:07;;;;;;;1.45;0.80;;;;;;;14.74;100.00;98804.13;15283439;19;20455;-59
2022/07/24 03:01:12;;;;;;;2.58;0.95;;;;;;;14.70;100.00;98810.09;15275668;19;20022;-59
2022/07/24 03:06:17;;;;;;;1.95;0.80;;;;;;;14.62;100.00;98816.38;15273614;19;21009;-59
2022/07/24 03:11:24;;;;;;;1.35;0.80;;;;;;;14.59;100.00;98819.44;15268050;19;20018;-59
2022/07/24 03:16:29;;;;;;;1.10;0.70;;;;;;;14.51;100.00;98817.59;15276054;19;20542;-59
2022/07/24 03:21:39;;;;;;;2.45;0.85;;;;;;;14.48;100.00;98821.53;15270487;19;20017;-58
2022/07/24 03:26:55;;;;;;;3.47;0.85;;;;;;;14.43;100.00;98826.63;15274886;19;20017;-59
2022/07/24 03:32:00;;;;;;;2.35;1.00;;;;;;;14.40;100.00;98821.56;15271999;19;20014;-59
2022/07/24 03:37:05;;;;;;;2.50;1.30;;;;;;;14.31;100.00;98819.88;15273031;19;20050;-59
2022/07/24 03:42:13;;;;;;;3.50;1.23;;;;;;;14.25;100.00;98826.03;15263012;19;20035;-58
2022/07/24 03:47:18;;;;;;;2.33;1.30;;;;;;;14.18;100.00;98832.13;15273883;19;20039;-59
2022/07/24 03:52:23;;;;;;;2.13;1.25;;;;;;;14.16;100.00;98836.03;15275173;19;20015;-58
2022/07/24 03:57:30;;;;;;;1.90;1.38;;;;;;;14.15;100.00;98832.50;15288802;19;20487;-59
2022/07/24 04:02:35;;;;;;;4.13;1.23;;;;;;;14.14;100.00;98840.78;15283505;19;20022;-59
2022/07/24 04:07:41;;;;;;;2.42;1.60;;;;;;;14.17;100.00;98833.16;15288512;19;20034;-59
2022/07/24 04:12:48;;;;;;;1.88;1.33;;;;;;;14.18;100.00;98840.25;15276793;19;20015;-57
2022/07/24 04:17:53;;;;;;;1.83;1.40;;;;;;;14.20;100.00;98837.38;15288026;19;20057;-55
2022/07/24 04:22:58;;;;;;;1.60;1.20;;;;;;;14.26;100.00;98833.13;15277224;19;20038;-54
2022/07/24 04:28:08;;;;;;;1.33;1.10;;;;;;;14.27;100.00;98848.38;15285898;19;20017;-59
2022/07/24 04:33:12;;;;;;;2.00;1.35;;;;;;;14.28;100.00;98834.66;15283030;19;20014;-55
2022/07/24 04:38:18;;;;;;;2.22;1.30;;;;;;;14.31;100.00;98831.59;15287741;19;20007;-56
2022/07/24 04:43:25;;;;;;;1.45;1.20;;;;;;;14.37;100.00;98826.47;15283635;19;20021;-58
2022/07/24 04:48:31;;;;;;;4.68;1.20;;;;;;;14.42;100.00;98832.22;15280548;19;20452;-60
2022/07/24 04:53:36;;;;;;;1.48;1.25;;;;;;;14.48;100.00;98828.78;15277516;19;20044;-57
2022/07/24 04:58:43;;;;;;;1.55;1.20;;;;;;;14.55;100.00;98831.66;15283206;19;20010;-59
2022/07/24 05:03:48;;;;;;;4.20;1.42;;;;;;;14.56;100.00;98839.63;15279371;19;20018;-55
2022/07/24 05:08:54;;;;;;;1.63;1.30;;;;;;;14.65;100.00;98834.97;15280582;19;20492;-57
2022/07/24 05:14:01;;;;;;;2.08;1.10;;;;;;;14.74;100.00;98844.81;15281105;19;20047;-53
2022/07/24 05:19:06;;;;;;;3.75;1.35;;;;;;;14.84;100.00;98836.44;15274892;19;20010;-58
2022/07/24 05:24:12;;;;;;;2.67;1.33;;;;;;;14.93;100.00;98839.94;15284674;19;20371;-59
2022/07/24 05:29:20;;;;;;;1.30;1.05;;;;;;;15.01;100.00;98829.03;15275779;19;20030;-57
2022/07/24 05:34:26;;;;;;;1.70;1.10;;;;;;;15.13;100.00;98828.63;15283033;19;20018;-57
2022/07/24 05:39:31;;;;;;;1.45;1.10;;;;;;;15.21;100.00;98828.56;15277090;19;20570;-57
2022/07/24 05:44:39;;;;;;;1.75;1.10;;;;;;;15.33;100.00;98827.13;15282401;19;20010;-55
2022/07/24 05:49:44;;;;;;;2.58;1.30;;;;;;;15.46;100.00;98831.09;15271716;19;20034;-56
2022/07/24 05:54:49;;;;;;;2.03;1.13;;;;;;;15.60;100.00;98832.97;15280951;19;20007;-56
2022/07/24 05:59:57;;;;;;;1.80;1.20;;;;;;;15.72;100.00;98822.53;15273985;19;20015;-56
2022/07/24 06:05:02;;;;;;;3.22;1.13;;;;;;;15.90;100.00;98826.78;15279502;19;20415;-58
2022/07/24 06:10:08;;;;;;;1.83;1.15;;;;;;;16.05;100.00;98829.53;15277063;19;20023;-55
2022/07/24 06:15:21;;;;;;;3.25;1.30;;;;;;;16.21;100.00;98821.19;15253278;19;20022;-56
2022/07/24 06:20:26;;;;;;;2.10;1.13;;;;;;;16.40;100.00;98816.22;15270515;19;20014;-58
2022/07/24 06:25:31;;;;;;;3.63;1.10;;;;;;;16.60;100.00;98822.75;15279281;19;20010;-58
2022/07/24 06:30:39;;;;;;;1.27;1.00;;;;;;;16.78;100.00;98818.75;15270448;19;20018;-57
2022/07/24 06:35:44;;;;;;;1.17;0.90;;;;;;;17.06;100.00;98816.16;15278791;19;20022;-60
2022/07/24 06:40:49;;;;;;;2.63;1.02;;;;;;;17.23;100.00;98816.72;15275233;19;20018;-56
2022/07/24 06:45:57;;;;;;;2.47;1.02;;;;;;;17.48;100.00;98808.16;15278292;19;20018;-60
2022/07/24 06:51:02;;;;;;;1.52;1.00;;;;;;;17.71;100.00;98823.44;15274152;19;20035;-58
2022/07/24 06:56:08;;;;;;;4.25;1.00;;;;;;;17.93;100.00;98804.31;15271361;19;20010;-57
2022/07/24 07:01:15;;;;;;;1.92;0.80;;;;;;;18.12;100.00;98808.22;15273188;19;20017;-54
2022/07/24 07:06:20;;;;;;;3.90;0.80;;;;;;;18.37;100.00;98805.84;15271892;19;20048;-58
2022/07/24 07:11:25;;;;;;;3.40;1.08;;;;;;;18.55;100.00;98807.16;15271623;19;20895;-58
2022/07/24 07:16:33;;;;;;;2.08;0.80;;;;;;;18.74;100.00;98800.09;15277783;19;20075;-56
2022/07/24 07:21:38;;;;;;;2.38;0.82;;;;;;;19.06;100.00;98801.28;15270532;19;20003;-57
2022/07/24 07:26:43;;;;;;;2.08;0.70;;;;;;;19.27;100.00;98799.41;15279904;19;20022;-56
2022/07/24 07:31:51;;;;;;;1.77;0.70;;;;;;;19.56;100.00;98794.59;15286190;19;20031;-56
2022/07/24 07:36:56;;;;;;;0.98;0.70;;;;;;;19.79;100.00;98793.31;15288845;19;20022;-63
2022/07/24 07:42:01;;;;;;;2.95;0.70;;;;;;;19.96;100.00;98800.03;15291330;19;20018;-56
2022/07/24 07:47:08;;;;;;;1.23;0.57;;;;;;;20.13;100.00;98794.94;15295408;19;20582;-58
2022/07/24 07:52:13;;;;;;;0.73;0.50;;;;;;;20.38;100.00;98793.41;15289714;19;20018;-56
2022/07/24 07:57:19;;;;;;;1.83;0.70;;;;;;;20.68;100.00;98788.25;15284775;19;20018;-51
2022/07/24 08:02:26;;;;;;;1.70;0.70;;;;;;;20.86;100.00;98787.53;15286701;19;20011;-58
2022/07/24 08:07:31;;;;;;;1.50;0.80;;;;;;;21.21;100.00;98787.09;15286250;19;20014;-57
2022/07/24 08:12:37;;;;;;;1.65;0.63;;;;;;;21.33;100.00;98789.94;15283706;19;20311;-60
2022/07/24 08:17:45;;;;;;;2.05;0.68;;;;;;;21.63;100.00;98788.47;15288709;19;20050;-57
2022/07/24 08:22:50;;;;;;;1.58;0.60;;;;;;;21.72;100.00;98789.88;15284816;19;20038;-61
2022/07/24 08:27:55;;;;;;;1.55;0.70;;;;;;;21.89;100.00;98770.94;15287039;19;20058;-57
2022/07/24 08:33:03;;;;;;;4.20;0.85;;;;;;;22.07;98.98;98772.03;15271991;19;20038;-60
2022/07/24 08:38:08;;;;;;;1.95;0.90;;;;;;;22.30;99.80;98768.56;15287407;19;20014;-60
2022/07/24 08:43:13;;;;;;;1.83;0.90;;;;;;;22.41;92.94;98762.34;15281814;19;20022;-57
2022/07/24 08:48:23;;;;;;;1.55;0.60;;;;;;;22.60;87.57;98770.56;15291636;19;20028;-61
2022/07/24 08:53:28;;;;;;;2.95;0.80;;;;;;;22.69;89.03;98760.94;15284982;19;20018;-61
2022/07/24 08:58:37;;;;;;;1.67;0.80;;;;;;;22.83;85.57;98763.50;15288882;19;20499;-59
2022/07/24 09:03:47;;;;;;;2.03;0.90;;;;;;;23.01;86.45;98757.94;15269859;19;20033;-57
2022/07/24 09:09:02;;;;;;;2.07;0.80;;;;;;;23.22;72.94;98762.09;15277777;19;20007;-59
2022/07/24 09:19:31;;;;;;;1.40;0.80;;;;;;;23.57;73.81;98751.38;15281354;19;20040;-54
2022/07/24 09:24:37;;;;;;;1.98;0.93;;;;;;;23.65;72.68;98751.88;15286106;19;20057;-55
2022/07/24 09:29:43;;;;;;;2.80;0.80;;;;;;;23.92;68.62;98756.88;15281236;19;20017;-55
2022/07/24 09:34:54;;;;;;;1.10;0.80;;;;;;;23.95;65.22;98753.66;15275394;19;20065;-58
2022/07/24 09:40:12;;;;;;;1.23;0.82;;;;;;;24.20;64.09;98748.97;15278201;19;20007;-59
2022/07/24 09:45:18;;;;;;;1.38;0.80;;;;;;;24.40;61.96;98748.56;15276821;19;20030;-58
2022/07/24 09:50:30;;;;;;;1.75;0.93;;;;;;;24.46;61.68;98755.84;15278871;19;20021;-55
2022/07/24 09:55:35;;;;;;;1.02;0.70;;;;;;;24.56;57.82;98753.28;15278510;19;20007;-59
2022/07/24 10:00:45;;;;;;;1.92;0.70;;;;;;;24.67;58.53;98753.50;15273078;19;20460;-60
2022/07/24 10:05:57;;;;;;;1.10;0.80;;;;;;;24.69;57.68;98754.13;15273044;19;20018;-59
2022/07/24 10:11:04;;;;;;;2.70;0.80;;;;;;;24.92;56.71;98751.25;15276166;19;20039;-60
2022/07/24 10:16:32;;;;;;;2.78;0.75;;;;;;;25.11;54.40;98740.00;15276224;19;20022;-59
2022/07/24 10:21:40;;;;;;;1.08;0.77;;;;;;;25.15;54.71;98735.66;15277242;19;20640;-60
2022/07/24 10:26:48;;;;;;;1.42;0.70;;;;;;;25.37;53.27;98729.41;15274931;19;20010;-59
2022/07/24 10:31:55;;;;;;;2.42;0.73;;;;;;;25.36;53.59;98727.72;15271343;19;20007;-61
2022/07/24 10:37:12;;;;;;;2.38;0.60;;;;;;;25.29;52.30;98718.81;15280548;19;20019;-58
2022/07/24 10:42:17;;;;;;;2.42;0.90;;;;;;;25.47;53.87;98729.59;15270327;19;20018;-61
2022/07/24 10:47:28;;;;;;;1.50;0.80;;;;;;;25.48;50.87;98717.47;15281428;19;20011;-61
2022/07/24 10:52:36;;;;;;;2.58;0.93;;;;;;;25.72;52.12;98716.47;15267712;19;20434;-60
2022/07/24 10:57:49;;;;;;;1.60;0.80;;;;;;;25.79;52.46;98706.06;15277629;19;20019;-61
2022/07/24 11:03:02;;;;;;;1.88;0.70;;;;;;;26.00;48.97;98709.94;15302398;19;20073;-60
2022/07/24 11:08:33;;;;;;;1.42;0.60;;;;;;;26.03;48.49;98692.88;15307420;19;20011;-59
2022/07/24 11:13:59;;;;;;;;;;;;;;;26.10;49.07;98695.47;15297924;19;20026;-59
2022/07/24 11:19:32;;;;;;;1.23;0.80;;;;;;;26.40;48.64;98689.47;15305484;19;19932;-58
2022/07/24 11:24:37;;;;;;;1.55;0.73;;;;;;;26.48;48.72;98684.59;15302508;19;20593;-57
2022/07/24 11:29:46;;;;;;;0.70;0.70;;;;;;;26.59;47.59;98683.59;15302268;19;20035;-60
2022/07/24 11:34:53;;;;;;;2.72;0.80;;;;;;;26.66;48.69;98667.63;15303723;19;20049;-56
2022/07/24 11:39:59;;;;;;;0.70;0.60;;;;;;;26.88;48.98;98655.72;15299478;19;20056;-60
2022/07/24 11:45:08;;;;;;;0.88;0.65;;;;;;;27.16;48.09;98665.66;15295478;19;20366;-59
2022/07/24 11:50:15;;;;;;;1.42;0.70;;;;;;;27.44;46.56;98657.25;15299348;19;20411;-59
2022/07/24 11:55:25;;;;;;;1.70;0.70;;;;;;;27.58;45.26;98658.47;15297459;19;20122;-59
2022/07/24 12:00:37;;;;;;;1.13;0.63;;;;;;;27.62;43.89;98656.84;15297909;19;20013;-61
2022/07/24 12:05:43;;;;;;;0.85;0.70;;;;;;;27.92;45.92;98649.81;15300164;19;20791;-52
2022/07/24 12:11:04;;;;;;;1.52;0.77;;;;;;;27.90;43.38;98645.63;15284565;19;20014;-60
2022/07/24 12:16:29;;;;;;;1.30;0.70;;;;;;;28.09;43.20;98646.88;15277195;19;20023;-58
2022/07/24 12:21:35;;;;;;;1.17;0.70;;;;;;;28.29;44.19;98632.22;15277777;19;20621;-60
2022/07/24 12:26:57;;;;;;;1.30;0.70;;;;;;;28.30;42.16;98625.56;15276901;19;20014;-59
2022/07/24 12:32:20;;;;;;;0.70;0.57;;;;;;;28.50;42.13;98626.75;15279453;19;20011;-59
2022/07/24 12:37:26;;;;;;;3.03;0.80;;;;;;;28.66;42.69;98608.19;15285812;19;20583;-58
2022/07/24 12:42:33;;;;;;;2.03;0.70;;;;;;;28.62;42.32;98609.03;15279971;19;20062;-62
2022/07/24 12:48:12;;;;;;;2.10;0.80;;;;;;;28.65;40.87;98600.13;15278761;19;20057;-57
2022/07/24 12:53:19;;;;;;;1.42;0.60;;;;;;;28.64;41.22;98595.69;15280027;19;20507;-59
2022/07/24 12:58:25;;;;;;;2.88;0.70;;;;;;;28.84;41.40;98598.53;15278132;19;20014;-62
2022/07/24 13:03:35;;;;;;;2.28;0.60;;;;;;;29.02;40.89;98587.97;15283201;19;20114;-57
2022/07/24 13:08:45;;;;;;;3.58;0.55;;;;;;;29.41;41.30;98580.97;15282189;19;20868;-61
2022/07/24 13:13:55;;;;;;;1.30;0.65;;;;;;;29.37;40.22;98566.84;15293726;19;20369;-58
2022/07/24 13:19:09;;;;;;;1.35;0.65;;;;;;;29.37;39.28;98569.63;15286708;19;20018;-54
2022/07/24 13:24:18;;;;;;;1.23;0.68;;;;;;;29.98;39.82;98551.91;15291214;19;20038;-58
2022/07/24 13:29:29;;;;;;;1.35;0.68;;;;;;;29.98;39.50;98556.63;15279530;19;20014;-56
2022/07/24 13:34:37;;;;;;;4.78;0.68;;;;;;;29.97;39.11;98557.72;15269136;19;20014;-57
2022/07/24 13:39:42;;;;;;;1.45;0.63;;;;;;;29.90;39.20;98563.56;15279764;19;20006;-61
2022/07/24 13:44:48;;;;;;;2.03;0.88;;;;;;;30.24;39.10;98559.25;15282692;19;20022;-59
2022/07/24 13:49:56;;;;;;;1.15;0.60;;;;;;;31.11;38.50;98551.31;15276943;19;20436;-55
2022/07/24 13:55:02;;;;;;;2.50;0.60;;;;;;;30.84;38.25;98538.78;15267956;19;20027;-56
2022/07/24 14:00:10;;;;;;;1.65;0.70;;;;;;;31.34;37.25;98535.78;15272887;19;20823;-60
2022/07/24 14:05:18;;;;;;;2.50;0.73;;;;;;;31.51;36.80;98525.03;15276322;19;20034;-63
2022/07/24 14:10:24;;;;;;;1.27;0.50;;;;;;;31.66;37.22;98520.34;15288932;19;20341;-63
2022/07/24 14:15:29;;;;;;;1.55;0.60;;;;;;;31.59;36.18;98512.38;15291324;19;20018;-61
2022/07/24 14:20:37;;;;;;;2.53;0.60;;;;;;;31.27;36.97;98513.88;15289435;19;20007;-63
2022/07/24 14:25:42;;;;;;;1.10;0.70;;;;;;;31.43;37.04;98514.53;15283999;19;20011;-62
2022/07/24 14:30:48;;;;;;;4.43;0.60;;;;;;;32.22;36.77;98504.84;15288333;19;20413;-62
2022/07/24 14:35:57;;;;;;;1.83;0.63;;;;;;;33.19;35.68;98493.16;15283517;19;20555;-62
2022/07/24 14:41:02;;;;;;;0.68;0.50;;;;;;;33.77;34.79;98487.19;15287086;19;20023;-62
2022/07/24 14:46:07;;;;;;;1.27;0.70;;;;;;;34.18;34.47;98489.09;15290039;19;20021;-59
2022/07/24 14:51:15;;;;;;;1.02;0.50;;;;;;;34.72;33.44;98477.97;15285562;19;20018;-62
2022/07/24 14:56:20;;;;;;;0.60;0.60;;;;;;;34.13;32.93;98471.63;15279866;19;20408;-62
2022/07/24 15:01:31;;;;;;;1.95;0.40;;;;;;;34.15;33.40;98464.56;15281879;19;20014;-62
2022/07/24 15:06:45;;;;;;;2.80;0.60;;;;;;;34.02;32.82;98460.69;15283702;19;20017;-60
2022/07/24 15:11:50;;;;;;;2.88;0.60;;;;;;;33.89;33.46;98453.16;15285730;19;20016;-60
2022/07/24 15:16:56;;;;;;;3.00;0.52;;;;;;;33.91;32.74;98451.69;15286214;19;20010;-61
2022/07/24 15:22:04;;;;;;;2.00;0.50;;;;;;;33.97;32.31;98438.44;15278491;19;20082;-60
2022/07/24 15:27:09;;;;;;;1.10;0.47;;;;;;;34.01;32.76;98442.25;15283568;19;20011;-60
2022/07/24 15:32:15;;;;;;;1.80;0.47;;;;;;;34.65;31.96;98441.22;15273977;19;20035;-62
2022/07/24 15:37:23;;;;;;;6.22;0.60;;;;;;;35.07;31.67;98440.94;15283498;19;20475;-59
2022/07/24 15:42:29;;;;;;;1.25;0.65;;;;;;;35.52;31.24;98420.31;15270778;19;20285;-62
2022/07/24 15:47:35;;;;;;;0.93;0.50;;;;;;;35.75;30.77;98412.56;15286585;19;20015;-62
2022/07/24 15:52:42;;;;;;;0.70;0.50;;;;;;;36.03;30.74;98409.47;15281655;19;20039;-62
2022/07/24 15:57:47;;;;;;;1.63;0.40;;;;;;;36.08;30.54;98402.88;15283557;19;20014;-62
2022/07/24 16:02:52;;;;;;;4.45;0.47;;;;;;;36.02;30.17;98393.00;15281509;19;20023;-62
2022/07/24 16:08:01;;;;;;;0.55;0.40;;;;;;;36.19;30.51;98392.13;15293910;19;20028;-63
2022/07/24 16:13:06;;;;;;;1.33;0.47;;;;;;;36.21;29.86;98379.44;15283419;19;20023;-63
2022/07/24 16:18:11;;;;;;;0.93;0.50;;;;;;;36.33;30.09;98375.09;15294023;19;20039;-63
2022/07/24 16:23:22;;;;;;;0.60;0.50;;;;;;;36.11;30.06;98374.16;15288263;19;20015;-60
2022/07/24 16:28:27;;;;;;;0.60;0.50;;;;;;;36.25;30.03;98363.59;15290261;19;20549;-63
2022/07/24 16:33:33;;;;;;;3.50;0.68;;;;;;;35.27;30.03;98361.09;15279005;19;20382;-60
2022/07/24 16:38:49;;;;;;;0.95;0.50;;;;;;;34.95;31.06;98357.59;15284911;19;20007;-62
2022/07/24 16:43:54;;;;;;;0.50;0.50;;;;;;;34.79;30.66;98356.34;15276625;19;20015;-60
2022/07/24 16:49:00;;;;;;;1.98;0.50;;;;;;;34.24;31.21;98348.00;15282605;19;20502;-59
2022/07/24 16:54:08;;;;;;;0.70;0.60;;;;;;;34.23;31.06;98359.53;15281950;19;20070;-57
2022/07/24 16:59:14;;;;;;;1.33;0.45;;;;;;;33.98;31.30;98345.06;15280526;19;20018;-62
2022/07/24 17:10:18;;;;;;;1.38;0.60;;;;;;;34.13;31.46;98340.22;15282354;19;19999;-57
2022/07/24 17:15:23;;;;;;;1.17;0.50;;;;;;;34.31;31.18;98343.94;15277394;19;20015;-59
2022/07/24 17:20:31;;;;;;;2.65;0.57;;;;;;;34.34;31.19;98343.31;15274463;19;20043;-58
2022/07/24 17:25:42;;;;;;;2.90;0.50;;;;;;;34.47;30.83;98352.75;15283211;19;20018;-60
2022/07/24 17:30:48;;;;;;;1.38;0.80;;;;;;;34.51;30.85;98353.78;15279872;19;20017;-56
2022/07/24 17:35:54;;;;;;;0.77;0.50;;;;;;;34.46;31.34;98351.13;15277578;19;20047;-58
2022/07/24 17:41:01;;;;;;;1.83;0.60;;;;;;;34.19;30.96;98353.75;15272225;19;20719;-54
2022/07/24 17:46:07;;;;;;;4.28;0.52;;;;;;;34.10;31.53;98348.09;15282422;19;20376;-59
2022/07/24 17:51:12;;;;;;;3.63;0.60;;;;;;;33.86;31.56;98347.56;15272905;19;20014;-62
2022/07/24 17:56:20;;;;;;;1.00;0.57;;;;;;;33.40;32.01;98349.53;15277515;19;20010;-62
2022/07/24 18:01:25;;;;;;;1.88;0.50;;;;;;;33.31;31.99;98341.84;15276429;19;20548;-59
2022/07/24 18:06:30;;;;;;;2.47;0.50;;;;;;;33.07;32.28;98336.53;15276653;19;20010;-53
2022/07/24 18:11:38;;;;;;;2.75;0.60;;;;;;;32.88;32.40;98328.28;15263684;19;20506;-60
2022/07/24 18:16:43;;;;;;;1.58;0.60;;;;;;;32.48;32.89;98322.34;15276080;19;20018;-59
2022/07/24 18:21:48;;;;;;;0.95;0.50;;;;;;;32.14;32.97;98324.38;15266953;19;20010;-57
2022/07/24 18:26:56;;;;;;;0.60;0.47;;;;;;;31.84;33.49;98323.75;15275550;19;20671;-61
2022/07/24 18:32:01;;;;;;;2.92;0.60;;;;;;;31.48;34.23;98321.53;15265212;19;20035;-57
2022/07/24 18:37:06;;;;;;;1.42;0.60;;;;;;;31.09;34.94;98325.44;15276147;19;20750;-57
2022/07/24 18:42:15;;;;;;;3.05;0.70;;;;;;;30.68;35.54;98316.47;15266452;19;20022;-57
2022/07/24 18:47:20;;;;;;;3.33;0.80;;;;;;;30.16;35.99;98320.94;15273909;19;20026;-57
2022/07/24 18:52:25;;;;;;;3.90;0.60;;;;;;;29.76;36.86;98319.03;15269638;19;20025;-56
2022/07/24 18:57:35;;;;;;;1.98;0.50;;;;;;;29.21;37.54;98324.66;14764193;19;10000639;-59
2022/07/24 19:02:41;;;;;;;2.88;0.50;;;;;;;28.79;38.44;98314.91;15270768;19;20085;-60
2022/07/24 19:07:46;;;;;;;2.17;0.80;;;;;;;28.38;39.08;98324.97;15275192;19;20089;-58
2022/07/24 19:12:54;;;;;;;2.63;1.00;;;;;;;28.05;40.00;98327.22;15271662;19;20011;-53
2022/07/24 19:17:59;;;;;;;2.35;1.00;;;;;;;27.66;40.44;98325.00;15270139;19;20581;-57
2022/07/24 19:23:05;;;;;;;3.40;1.20;;;;;;;27.38;40.95;98324.44;15281762;19;20085;-57
2022/07/24 19:28:12;;;;;;;3.88;0.80;;;;;;;27.18;41.73;98331.56;15285333;19;20019;-56
2022/07/24 19:33:17;;;;;;;3.33;1.00;;;;;;;26.90;42.27;98333.69;15284131;19;20014;-56
2022/07/24 19:43:59;;;;;;;2.63;0.73;;;;;;;26.49;42.87;98338.19;15283911;19;20044;-57
2022/07/24 19:49:04;;;;;;;1.65;0.80;;;;;;;26.37;43.09;98333.69;15281916;19;20017;-57
2022/07/24 19:54:09;;;;;;;2.60;0.98;;;;;;;26.15;43.48;98331.91;15286396;19;20479;-61
2022/07/24 19:59:17;;;;;;;2.13;0.80;;;;;;;25.93;44.44;98328.41;15282299;19;20011;-53
2022/07/24 20:04:22;;;;;;;1.38;0.80;;;;;;;25.71;45.04;98334.00;15282841;19;20014;-57
2022/07/24 20:09:27;;;;;;;2.50;0.70;;;;;;;25.47;45.45;98335.16;15285769;19;20029;-59
2022/07/24 20:14:35;;;;;;;2.13;0.80;;;;;;;25.28;45.56;98333.84;15284107;19;20034;-58
2022/07/24 20:19:40;;;;;;;3.17;0.77;;;;;;;25.19;45.83;98334.31;15275379;19;20025;-62
2022/07/24 20:24:46;;;;;;;2.63;0.60;;;;;;;25.04;46.58;98329.50;15284742;19;20334;-57
2022/07/24 20:29:53;;;;;;;1.23;0.70;;;;;;;24.96;47.38;98337.38;15277597;19;20014;-56
2022/07/24 20:34:59;;;;;;;3.33;0.68;;;;;;;24.90;46.79;98340.06;15273384;19;20487;-57
2022/07/24 20:40:07;;;;;;;2.67;0.82;;;;;;;24.83;47.56;98338.56;15278978;19;20492;-56
2022/07/24 20:45:15;;;;;;;2.13;0.80;;;;;;;24.76;47.71;98338.78;15284563;19;20413;-57
2022/07/24 20:50:20;;;;;;;2.78;0.68;;;;;;;24.65;47.50;98342.44;15274890;19;20094;-58
2022/07/24 20:55:25;;;;;;;2.95;0.80;;;;;;;24.60;47.99;98341.31;15281620;19;20007;-54
2022/07/24 21:00:33;;;;;;;1.33;0.70;;;;;;;24.42;48.19;98345.22;15279506;19;20700;-58
2022/07/24 21:05:38;;;;;;;1.63;0.80;;;;;;;24.32;48.73;98342.31;15255695;19;20493;-62
2022/07/24 21:10:44;;;;;;;0.80;0.80;;;;;;;24.16;49.38;98346.75;15278864;19;20043;-58
2022/07/24 21:15:51;;;;;;;1.52;0.80;;;;;;;23.93;49.73;98342.22;15279519;19;20047;-61
2022/07/24 21:20:57;;;;;;;3.22;0.80;;;;;;;23.87;49.57;98341.31;15276722;19;20417;-61
2022/07/24 21:26:03;;;;;;;1.73;0.90;;;;;;;23.77;49.91;98336.47;15275028;19;20002;-58
2022/07/24 21:31:12;;;;;;;5.28;0.82;;;;;;;23.66;50.46;98327.22;15279758;19;20097;-57
2022/07/24 21:36:18;;;;;;;2.22;0.90;;;;;;;23.65;50.38;98341.22;15273109;19;20014;-56
2022/07/24 21:41:24;;;;;;;4.47;0.70;;;;;;;23.52;51.35;98325.88;15276162;19;20019;-58
2022/07/24 21:46:32;;;;;;;2.35;0.80;;;;;;;23.45;51.43;98327.97;15280921;19;20018;-62
2022/07/24 21:51:39;;;;;;;3.92;0.80;;;;;;;23.38;51.72;98325.38;15275788;19;20452;-57
2022/07/24 21:56:50;;;;;;;2.95;0.70;;;;;;;23.33;51.59;98334.38;15268788;19;20782;-52
2022/07/24 22:01:58;;;;;;;0.75;0.60;;;;;;;23.26;52.00;98317.16;15277550;19;20018;-56
2022/07/24 22:07:04;;;;;;;1.90;0.70;;;;;;;23.17;52.68;98316.69;15276830;19;20041;-61
2022/07/24 22:12:10;;;;;;;1.23;0.77;;;;;;;23.06;53.09;98307.44;15278514;19;20014;-55
2022/07/24 22:17:19;;;;;;;1.40;0.68;;;;;;;23.03;53.16;98305.19;15275150;19;20024;-55
2022/07/24 22:22:25;;;;;;;2.53;0.77;;;;;;;23.02;53.09;98295.28;15273089;19;20025;-56
2022/07/24 22:27:32;;;;;;;1.60;0.80;;;;;;;23.00;53.69;98291.09;15268978;19;20098;-57
2022/07/24 22:32:41;;;;;;;1.20;0.70;;;;;;;22.95;53.26;98283.59;15271799;19;20018;-56
2022/07/24 22:37:49;;;;;;;2.22;0.65;;;;;;;22.91;53.95;98280.53;15274166;19;20014;-54
2022/07/24 22:42:55;;;;;;;4.05;0.80;;;;;;;22.82;54.07;98270.97;15267449;19;20089;-60
2022/07/24 22:48:05;;;;;;;1.58;0.77;;;;;;;22.78;54.19;98267.91;15276170;19;20019;-55
2022/07/24 22:53:11;;;;;;;2.72;0.80;;;;;;;22.76;54.48;98269.22;15272030;19;20006;-58
2022/07/24 22:58:18;;;;;;;1.55;0.80;;;;;;;22.70;54.42;98260.06;15246689;19;20052;-56
2022/07/24 23:03:26;;;;;;;1.60;0.80;;;;;;;22.60;55.58;98257.13;15264180;19;20023;-55
2022/07/24 23:08:31;;;;;;;1.67;0.60;;;;;;;22.59;55.21;98252.69;15276632;19;20351;-59
2022/07/24 23:13:36;;;;;;;0.70;0.65;;;;;;;22.50;56.40;98260.47;15266015;19;20226;-61
2022/07/24 23:18:44;;;;;;;2.28;0.85;;;;;;;22.40;57.07;98249.25;15280748;19;20022;-61
2022/07/24 23:23:49;;;;;;;1.88;0.90;;;;;;;22.29;57.81;98262.78;15275688;19;20027;-61
2022/07/24 23:28:53;;;;;;;1.77;0.85;;;;;;;22.20;58.52;98256.00;15277239;19;20009;-61
2022/07/24 23:34:01;;;;;;;2.22;0.90;;;;;;;22.13;58.95;98244.28;15269134;19;20010;-61
2022/07/24 23:39:07;;;;;;;1.60;0.90;;;;;;;22.06;59.67;98244.41;15279845;19;20010;-61
2022/07/24 23:44:12;;;;;;;0.95;0.70;;;;;;;22.02;60.19;98244.06;15274020;19;20011;-61
2022/07/24 23:49:19;;;;;;;2.28;0.75;;;;;;;22.00;60.47;98237.16;15273153;19;20050;-60
2022/07/24 23:54:24;;;;;;;2.50;0.80;;;;;;;21.97;61.08;98232.16;15274188;19;20344;-61
2022/07/24 23:59:29;;;;;;;1.23;0.80;;;;;;;21.95;61.64;98220.59;15275897;19;20047;-62
